Time;durP1;ratioP1;P1;durP2;ratioP2;P2;SDS_P1;SDS_P2;PMS_P1;PMS_P2;Temp;Humidity;BMP_temperature;BMP_pressure;BME280_temperature;BME280_humidity;BME280_pressure;Samples;Min_cycle;Max_cycle;Signal;HPM_P1;HPM_P2
2023/06/29 00:01:02;;;;;;;4.95;2.63;;;;;;;18.15;80.01;96609.16;5077155;28;20227;-62
2023/06/29 00:03:29;;;;;;;3.15;2.20;;;;;;;18.11;80.17;96607.88;5049824;28;20556;-61
2023/06/29 00:05:56;;;;;;;3.08;2.78;;;;;;;18.02;80.60;96603.69;5064882;28;20203;-61
2023/06/29 00:08:25;;;;;;;3.10;2.70;;;;;;;18.09;80.09;96608.09;5065609;28;20211;-62
2023/06/29 00:10:52;;;;;;;3.92;2.42;;;;;;;18.06;81.71;96605.78;5061851;28;20221;-60
2023/06/29 00:13:19;;;;;;;3.22;2.55;;;;;;;18.00;81.34;96606.53;5049192;28;20203;-61
2023/06/29 00:15:45;;;;;;;2.95;2.63;;;;;;;17.97;82.02;96601.56;5048693;28;20510;-61
2023/06/29 00:18:12;;;;;;;2.60;2.40;;;;;;;17.95;80.51;96597.44;5055187;28;20546;-61
2023/06/29 00:20:39;;;;;;;3.10;2.58;;;;;;;17.93;80.08;96594.94;5055710;28;20358;-61
2023/06/29 00:23:06;;;;;;;5.20;2.90;;;;;;;17.92;79.88;96599.44;5054857;28;20246;-61
2023/06/29 00:25:33;;;;;;;2.92;2.72;;;;;;;17.89;82.77;96588.31;5061645;28;20217;-62
2023/06/29 00:28:02;;;;;;;2.63;2.42;;;;;;;17.89;82.14;96583.78;5074713;28;20244;-62
2023/06/29 00:30:29;;;;;;;5.35;2.88;;;;;;;17.86;83.05;96594.03;5071468;28;20222;-61
2023/06/29 00:32:57;;;;;;;3.25;2.80;;;;;;;17.85;83.60;96587.06;5044748;28;20208;-62
2023/06/29 00:35:23;;;;;;;5.03;2.70;;;;;;;17.87;83.39;96596.53;5036027;28;20636;-61
2023/06/29 00:37:50;;;;;;;3.78;3.13;;;;;;;17.87;83.57;96596.53;5053809;28;20207;-61
2023/06/29 00:40:18;;;;;;;3.38;2.80;;;;;;;17.83;83.72;96589.06;5073092;28;20206;-60
2023/06/29 00:42:46;;;;;;;4.53;2.90;;;;;;;17.80;84.25;96579.59;5075418;28;20629;-61
2023/06/29 00:45:13;;;;;;;3.35;3.03;;;;;;;17.72;84.15;96577.00;5061826;28;20634;-62
2023/06/29 00:47:39;;;;;;;3.55;2.78;;;;;;;17.71;84.76;96574.53;5075163;28;20225;-61
2023/06/29 00:52:48;;;;;;;5.13;2.80;;;;;;;17.71;85.12;96580.69;5054654;28;20207;-62
2023/06/29 00:55:15;;;;;;;3.30;2.75;;;;;;;17.69;85.75;96574.72;5073998;28;20214;-61
2023/06/29 00:57:41;;;;;;;4.78;2.72;;;;;;;17.69;85.43;96571.22;5074175;28;20207;-61
2023/06/29 01:00:11;;;;;;;2.90;2.38;;;;;;;17.65;85.44;96573.44;5075285;28;20207;-61
2023/06/29 01:02:40;;;;;;;3.08;2.85;;;;;;;17.64;85.31;96579.78;5059373;28;20211;-61
2023/06/29 01:05:09;;;;;;;3.30;2.70;;;;;;;17.63;85.99;96570.13;5063581;28;20225;-62
2023/06/29 01:07:38;;;;;;;3.00;2.70;;;;;;;17.68;84.77;96570.38;5056295;28;20208;-61
2023/06/29 01:10:08;;;;;;;3.00;2.50;;;;;;;17.67;85.52;96571.41;5054024;28;20730;-62
2023/06/29 01:12:35;;;;;;;3.70;2.78;;;;;;;17.63;84.44;96562.13;5060606;28;20678;-61
2023/06/29 01:15:02;;;;;;;3.00;2.55;;;;;;;17.59;84.93;96550.13;5044876;28;20293;-61
2023/06/29 01:17:31;;;;;;;5.18;2.75;;;;;;;17.59;84.87;96560.81;5041185;28;20211;-61
2023/06/29 01:19:58;;;;;;;2.70;2.50;;;;;;;17.56;86.01;96555.84;5044016;28;20254;-60
2023/06/29 01:22:29;;;;;;;2.72;2.53;;;;;;;17.63;84.07;96558.59;5065741;28;20235;-61
2023/06/29 01:24:57;;;;;;;5.68;2.83;;;;;;;17.57;85.43;96551.34;5069779;28;20202;-60
2023/06/29 01:27:23;;;;;;;4.90;2.70;;;;;;;17.54;85.09;96552.50;5064799;28;20202;-61
2023/06/29 01:30:04;;;;;;;3.35;3.00;;;;;;;17.49;86.19;96559.44;5066106;28;20222;-61
2023/06/29 01:32:34;;;;;;;5.53;2.97;;;;;;;17.47;86.38;96556.94;5042675;28;20195;-61
2023/06/29 01:35:02;;;;;;;4.13;2.60;;;;;;;17.48;86.42;96550.59;5052194;28;20713;-61
2023/06/29 01:37:31;;;;;;;4.20;2.97;;;;;;;17.47;87.28;96554.28;5058255;28;20199;-61
2023/06/29 01:40:06;;;;;;;7.25;2.85;;;;;;;17.45;87.25;96561.66;5072718;28;20217;-61
2023/06/29 01:42:35;;;;;;;3.30;3.00;;;;;;;17.37;87.24;96553.75;5068847;28;20215;-61
2023/06/29 01:45:06;;;;;;;3.83;2.80;;;;;;;17.42;87.07;96554.03;5047259;28;20214;-62
2023/06/29 01:47:33;;;;;;;3.03;2.72;;;;;;;17.40;87.18;96556.03;5093384;28;20186;-61
2023/06/29 01:50:00;;;;;;;5.68;2.85;;;;;;;17.30;87.85;96548.31;5062035;28;20200;-61
2023/06/29 01:52:28;;;;;;;3.28;2.67;;;;;;;17.17;89.93;96548.16;5062498;28;20227;-61
2023/06/29 01:54:55;;;;;;;3.42;3.03;;;;;;;17.21;88.50;96551.28;5055530;28;20289;-61
2023/06/29 01:57:22;;;;;;;5.20;2.92;;;;;;;17.18;90.42;96549.78;5065765;28;20584;-61
2023/06/29 01:59:50;;;;;;;5.10;3.08;;;;;;;17.13;90.04;96554.06;5044363;28;20215;-61
2023/06/29 02:02:20;;;;;;;3.00;2.80;;;;;;;17.13;90.74;96554.06;5050318;28;20226;-60
2023/06/29 02:04:47;;;;;;;7.20;2.97;;;;;;;17.14;91.05;96551.22;5071105;28;20237;-61
2023/06/29 02:07:14;;;;;;;3.35;3.00;;;;;;;17.11;91.04;96556.09;5050823;28;20252;-61
2023/06/29 02:09:41;;;;;;;3.60;2.58;;;;;;;17.04;91.71;96555.19;5059484;28;20184;-62
2023/06/29 02:12:10;;;;;;;3.33;3.00;;;;;;;17.06;92.00;96547.78;5073815;28;20191;-61
2023/06/29 02:14:38;;;;;;;5.28;2.83;;;;;;;17.05;90.29;96557.66;5058266;28;20209;-60
2023/06/29 02:17:07;;;;;;;5.13;3.22;;;;;;;16.91;93.42;96550.47;5076785;28;20218;-62
2023/06/29 02:19:33;;;;;;;4.03;3.22;;;;;;;16.85;93.45;96545.88;5045841;28;20207;-61
2023/06/29 02:22:00;;;;;;;3.65;2.88;;;;;;;16.83;94.08;96548.72;5043602;28;20240;-61
2023/06/29 02:24:26;;;;;;;3.38;3.17;;;;;;;16.80;93.84;96538.41;5049275;28;20214;-61
2023/06/29 02:26:54;;;;;;;4.78;3.20;;;;;;;16.82;92.72;96539.06;5038323;28;20218;-61
2023/06/29 02:29:23;;;;;;;5.40;3.22;;;;;;;16.69;95.84;96541.53;5047717;28;20207;-61
2023/06/29 02:31:53;;;;;;;3.83;2.80;;;;;;;16.67;95.95;96538.22;5060177;28;20199;-61
2023/06/29 02:34:21;;;;;;;3.38;3.08;;;;;;;16.63;96.62;96538.75;5045332;28;20218;-61
2023/06/29 02:36:48;;;;;;;4.80;3.05;;;;;;;16.66;96.04;96546.41;5055070;28;20230;-61
2023/06/29 02:39:14;;;;;;;4.68;3.25;;;;;;;16.64;96.46;96543.94;5047472;28;20214;-61
2023/06/29 02:41:43;;;;;;;3.92;2.85;;;;;;;16.60;96.97;96544.47;5066677;28;20572;-61
2023/06/29 02:44:10;;;;;;;3.28;3.08;;;;;;;16.59;96.50;96557.00;5056466;28;20199;-61
2023/06/29 02:46:37;;;;;;;4.10;2.95;;;;;;;16.56;97.55;96556.53;5073348;28;20276;-61
2023/06/29 02:49:05;;;;;;;4.32;3.20;;;;;;;16.56;97.71;96554.69;5066623;28;20217;-62
2023/06/29 02:51:31;;;;;;;5.28;3.20;;;;;;;16.55;97.07;96555.66;5038792;28;20226;-61
2023/06/29 02:53:58;;;;;;;3.28;2.90;;;;;;;16.51;97.88;96554.34;5051758;28;20207;-61
2023/06/29 02:56:25;;;;;;;4.18;3.03;;;;;;;16.55;98.17;96544.16;5037745;28;20211;-62
2023/06/29 02:58:51;;;;;;;6.55;2.97;;;;;;;16.50;98.34;96544.72;5046737;28;20234;-61
2023/06/29 03:01:19;;;;;;;4.32;2.85;;;;;;;16.49;98.55;96550.22;5055528;28;20285;-61
2023/06/29 03:03:45;;;;;;;3.15;2.83;;;;;;;16.48;98.91;96549.38;5055632;28;20517;-60
2023/06/29 03:06:13;;;;;;;3.53;3.13;;;;;;;16.48;99.15;96564.56;5055374;28;20561;-62
2023/06/29 03:08:40;;;;;;;3.20;2.90;;;;;;;16.49;99.26;96556.41;5055495;28;20219;-61
2023/06/29 03:11:08;;;;;;;3.25;2.90;;;;;;;16.46;99.09;96561.25;5050484;28;20219;-61
2023/06/29 03:13:35;;;;;;;3.33;3.03;;;;;;;16.42;99.44;96556.28;5053704;28;20206;-61
2023/06/29 03:16:02;;;;;;;4.38;3.30;;;;;;;16.41;100.00;96556.47;5055066;28;20636;-61
2023/06/29 03:18:31;;;;;;;4.22;3.05;;;;;;;16.42;98.30;96553.63;5055199;28;20639;-61
2023/06/29 03:20:57;;;;;;;3.30;3.00;;;;;;;16.37;97.02;96557.81;5055056;28;20207;-61
2023/06/29 03:23:27;;;;;;;4.63;2.90;;;;;;;16.40;97.51;96557.50;5067068;28;20234;-61
2023/06/29 03:25:53;;;;;;;5.00;3.20;;;;;;;16.40;96.76;96562.84;5050666;28;20208;-61
2023/06/29 03:28:20;;;;;;;3.88;2.65;;;;;;;16.33;98.48;96559.22;5060887;28;20207;-61
2023/06/29 03:30:46;;;;;;;4.68;3.15;;;;;;;16.34;99.91;96558.19;5075034;28;20293;-61
2023/06/29 03:33:14;;;;;;;3.25;2.88;;;;;;;16.39;100.00;96569.16;5070692;28;20203;-61
2023/06/29 03:35:42;;;;;;;4.22;3.35;;;;;;;16.45;99.38;96560.44;5075358;28;20217;-61
2023/06/29 03:38:10;;;;;;;3.17;2.90;;;;;;;16.45;99.53;96560.44;5063881;28;20236;-61
2023/06/29 03:40:39;;;;;;;4.85;3.08;;;;;;;16.47;100.00;96563.75;5056066;28;20203;-61
2023/06/29 03:43:07;;;;;;;3.25;2.97;;;;;;;16.51;99.78;96554.34;5054612;28;20231;-62
2023/06/29 03:45:34;;;;;;;3.20;2.90;;;;;;;16.54;100.00;96554.03;5055097;28;20219;-61
2023/06/29 03:48:00;;;;;;;5.05;2.90;;;;;;;16.56;100.00;96553.84;5054932;28;20635;-61
2023/06/29 03:50:26;;;;;;;3.10;2.80;;;;;;;16.60;100.00;96550.66;5055251;28;20209;-61
2023/06/29 03:52:53;;;;;;;3.70;2.97;;;;;;;16.65;100.00;96545.56;5048752;28;20207;-62
2023/06/29 03:55:20;;;;;;;5.63;3.40;;;;;;;16.72;100.00;96543.03;5040440;28;20595;-61
2023/06/29 03:57:48;;;;;;;3.53;3.15;;;;;;;16.75;100.00;96540.81;5052872;28;20211;-61
2023/06/29 04:00:16;;;;;;;3.65;3.35;;;;;;;16.78;100.00;96540.44;5065885;28;20211;-61
2023/06/29 04:02:43;;;;;;;6.05;3.40;;;;;;;16.82;99.12;96539.06;5065547;28;20238;-61
2023/06/29 04:05:11;;;;;;;3.70;3.40;;;;;;;16.84;98.66;96545.03;5065517;28;20548;-61
2023/06/29 04:07:38;;;;;;;6.47;3.50;;;;;;;16.91;100.00;96543.28;5051800;28;20207;-61
2023/06/29 04:10:07;;;;;;;3.67;3.33;;;;;;;16.90;98.34;96533.59;5046176;28;20218;-61
2023/06/29 04:12:35;;;;;;;3.72;3.40;;;;;;;17.01;100.00;96539.50;5050891;28;20199;-61
2023/06/29 04:15:03;;;;;;;5.90;3.33;;;;;;;17.04;100.00;96537.28;5056445;28;20210;-61
2023/06/29 04:17:29;;;;;;;4.40;3.42;;;;;;;17.09;99.46;96536.72;5069881;28;20282;-61
2023/06/29 04:19:56;;;;;;;4.75;3.17;;;;;;;17.11;100.00;96535.53;5055902;28;20213;-61
2023/06/29 04:22:23;;;;;;;4.50;3.47;;;;;;;17.17;100.00;96525.94;5051207;28;20247;-60
2023/06/29 04:24:51;;;;;;;3.38;3.10;;;;;;;17.16;100.00;96524.28;5064580;28;20232;-62
2023/06/29 04:27:18;;;;;;;3.80;2.78;;;;;;;17.21;100.00;96529.91;5086550;28;20266;-62
2023/06/29 04:29:45;;;;;;;3.45;3.13;;;;;;;17.27;100.00;96524.63;5063968;28;20612;-63
2023/06/29 04:32:13;;;;;;;5.07;4.18;;;;;;;17.35;99.42;96531.72;5051455;28;20523;-61
2023/06/29 04:34:39;;;;;;;5.00;3.60;;;;;;;17.32;98.44;96537.44;5067149;28;20207;-61
2023/06/29 04:37:09;;;;;;;4.78;3.70;;;;;;;17.39;99.46;96543.72;5042875;28;20199;-62
2023/06/29 04:39:35;;;;;;;4.85;3.47;;;;;;;17.40;100.00;96540.00;5056280;28;20203;-62
2023/06/29 04:42:04;;;;;;;5.20;3.40;;;;;;;17.46;100.00;96536.59;5068528;28;20231;-61
2023/06/29 04:44:32;;;;;;;3.80;3.08;;;;;;;17.50;100.00;96537.03;5041822;28;20522;-63
2023/06/29 04:47:00;;;;;;;4.45;3.47;;;;;;;17.53;99.47;96545.50;5041759;28;20719;-61
2023/06/29 04:49:31;;;;;;;3.55;3.00;;;;;;;17.63;98.42;96545.22;5068255;28;20663;-61
2023/06/29 04:52:00;;;;;;;9.68;3.25;;;;;;;17.67;100.00;96542.00;5041020;28;20298;-62
2023/06/29 04:54:30;;;;;;;4.07;2.97;;;;;;;17.73;99.83;96545.75;5050520;28;20210;-61
2023/06/29 04:56:57;;;;;;;4.00;3.55;;;;;;;17.74;100.00;96542.91;5054716;28;20207;-60
2023/06/29 04:59:26;;;;;;;5.75;3.67;;;;;;;17.84;96.31;96543.41;5066971;28;20210;-61
2023/06/29 05:01:52;;;;;;;5.43;3.63;;;;;;;17.87;92.93;96542.19;5065259;28;20230;-61
2023/06/29 05:04:20;;;;;;;4.07;3.53;;;;;;;17.98;89.42;96543.53;5072344;28;20294;-61
2023/06/29 05:06:48;;;;;;;5.05;3.38;;;;;;;18.08;90.55;96546.72;5068093;28;20202;-61
2023/06/29 05:09:16;;;;;;;3.67;3.33;;;;;;;18.17;89.97;96540.22;5059682;28;20218;-61
2023/06/29 05:11:42;;;;;;;3.70;3.17;;;;;;;18.24;89.03;96547.28;5038703;28;20293;-61
2023/06/29 05:14:10;;;;;;;5.13;3.85;;;;;;;18.31;89.51;96542.00;5041449;28;20237;-61
2023/06/29 05:16:37;;;;;;;4.35;3.60;;;;;;;18.42;88.40;96533.44;5068303;28;20202;-61
2023/06/29 05:19:04;;;;;;;3.55;3.20;;;;;;;18.51;87.37;96542.16;5075064;28;20203;-61
2023/06/29 05:21:31;;;;;;;4.47;3.33;;;;;;;18.63;85.87;96533.41;5047611;28;20251;-61
2023/06/29 05:23:59;;;;;;;4.38;3.60;;;;;;;18.71;85.01;96535.09;5058027;28;20250;-61
2023/06/29 05:26:25;;;;;;;8.02;3.90;;;;;;;18.79;83.18;96533.09;5077239;28;20642;-63
2023/06/29 05:28:52;;;;;;;3.70;3.00;;;;;;;18.96;84.20;96532.78;5060234;28;20207;-61
2023/06/29 05:31:20;;;;;;;4.25;3.75;;;;;;;19.12;83.40;96533.28;5057969;28;20222;-62
2023/06/29 05:33:46;;;;;;;5.85;3.20;;;;;;;19.22;82.48;96538.28;5057153;28;20329;-61
2023/06/29 05:36:14;;;;;;;4.15;3.63;;;;;;;19.28;81.08;96529.44;5057737;28;20199;-61
2023/06/29 05:38:40;;;;;;;4.60;3.55;;;;;;;19.37;80.86;96536.28;5057970;28;20280;-61
2023/06/29 05:41:08;;;;;;;4.43;3.03;;;;;;;19.51;80.60;96537.19;5057914;28;20211;-61
2023/06/29 05:43:35;;;;;;;6.00;3.40;;;;;;;19.67;80.51;96544.88;5057184;28;20231;-60
2023/06/29 05:46:02;;;;;;;4.80;3.33;;;;;;;19.77;78.71;96538.09;5057303;28;20215;-61
2023/06/29 05:48:29;;;;;;;6.43;3.45;;;;;;;19.80;76.65;96526.94;5057427;28;20202;-62
2023/06/29 05:50:55;;;;;;;4.60;3.40;;;;;;;20.00;76.86;96532.34;5044556;28;20204;-61
2023/06/29 05:53:23;;;;;;;3.83;3.38;;;;;;;20.12;77.06;96535.28;5054963;28;20211;-61
2023/06/29 05:55:49;;;;;;;3.90;3.28;;;;;;;20.28;76.79;96534.91;5037255;28;20621;-60
2023/06/29 05:58:20;;;;;;;3.88;3.35;;;;;;;20.41;76.65;96529.50;5076639;28;20232;-61
2023/06/29 06:00:46;;;;;;;5.35;3.70;;;;;;;20.55;74.87;96525.78;5077653;28;20285;-62
2023/06/29 06:03:12;;;;;;;6.00;3.38;;;;;;;20.64;72.96;96529.94;5044579;28;20676;-61
2023/06/29 06:05:39;;;;;;;3.90;3.50;;;;;;;20.74;73.08;96524.94;5064066;28;20267;-61
2023/06/29 06:08:06;;;;;;;3.58;3.13;;;;;;;20.95;72.25;96521.19;5051312;28;20218;-62
2023/06/29 06:10:32;;;;;;;3.03;2.63;;;;;;;21.12;71.49;96525.09;5064673;28;20207;-60
2023/06/29 06:13:02;;;;;;;3.30;3.00;;;;;;;21.38;71.76;96526.88;5044754;28;20203;-61
2023/06/29 06:15:35;;;;;;;4.93;3.40;;;;;;;21.53;69.38;96524.75;5053145;28;20268;-62
2023/06/29 06:18:01;;;;;;;3.92;3.38;;;;;;;21.74;69.83;96516.34;5070014;28;20214;-62
2023/06/29 06:20:28;;;;;;;5.55;3.30;;;;;;;21.82;67.48;96507.19;5069857;28;20208;-61
2023/06/29 06:22:55;;;;;;;4.65;2.95;;;;;;;21.87;66.79;96517.31;5062329;28;20247;-62
2023/06/29 06:25:22;;;;;;;5.55;3.90;;;;;;;21.84;66.37;96514.00;5089589;28;20217;-61
2023/06/29 06:27:48;;;;;;;3.92;3.47;;;;;;;21.84;65.73;96522.09;5071405;28;20275;-62
2023/06/29 06:30:15;;;;;;;5.03;3.15;;;;;;;21.84;66.43;96514.00;5071791;28;20207;-62
2023/06/29 06:32:44;;;;;;;5.22;2.95;;;;;;;21.83;66.15;96523.13;5072047;28;20198;-62
2023/06/29 06:35:12;;;;;;;3.70;3.33;;;;;;;21.75;65.49;96522.56;5061029;28;20211;-62
2023/06/29 06:37:38;;;;;;;4.72;3.30;;;;;;;21.79;65.94;96519.19;5065162;28;20199;-62
2023/06/29 06:40:09;;;;;;;5.78;3.38;;;;;;;21.58;65.75;96514.13;5055327;28;20192;-61
2023/06/29 06:42:39;;;;;;;3.60;3.28;;;;;;;21.64;65.85;96515.16;5090747;28;20221;-62
2023/06/29 06:45:06;;;;;;;3.00;2.78;;;;;;;21.70;66.28;96519.69;5087131;28;20208;-61
2023/06/29 06:47:34;;;;;;;6.55;3.63;;;;;;;21.72;66.77;96515.72;5052380;28;20207;-62
2023/06/29 06:50:02;;;;;;;4.70;3.40;;;;;;;21.74;65.06;96513.66;5080123;28;20210;-62
2023/06/29 06:52:29;;;;;;;3.92;3.25;;;;;;;21.77;66.43;96512.41;5066095;28;20195;-62
2023/06/29 06:54:56;;;;;;;7.25;3.70;;;;;;;21.81;66.04;96511.75;5053667;28;20222;-61
2023/06/29 06:57:23;;;;;;;5.93;3.60;;;;;;;21.75;66.57;96519.88;5063736;28;20268;-61
2023/06/29 06:59:50;;;;;;;5.97;3.55;;;;;;;21.69;67.85;96518.84;5075494;28;20233;-61
2023/06/29 07:02:16;;;;;;;4.70;3.20;;;;;;;21.67;67.53;96520.94;5063259;28;20211;-62
2023/06/29 07:04:43;;;;;;;4.80;3.30;;;;;;;21.53;66.64;96507.78;5061454;28;20233;-62
2023/06/29 07:07:11;;;;;;;5.45;3.65;;;;;;;21.50;68.54;96519.78;5065432;28;20221;-62
2023/06/29 07:09:38;;;;;;;6.80;3.60;;;;;;;21.50;71.59;96521.66;5075171;28;20237;-62
2023/06/29 07:12:05;;;;;;;5.30;3.42;;;;;;;21.95;69.19;96522.47;5055300;28;20204;-63
2023/06/29 07:14:33;;;;;;;4.20;3.35;;;;;;;22.05;65.82;96512.88;5048312;28;20222;-62
2023/06/29 07:17:00;;;;;;;4.68;3.30;;;;;;;22.30;64.64;96531.75;5060556;28;20203;-62
2023/06/29 07:19:27;;;;;;;6.35;3.50;;;;;;;22.62;64.76;96521.75;5055664;28;20210;-62
2023/06/29 07:21:54;;;;;;;3.47;3.28;;;;;;;22.90;62.33;96522.13;5054701;28;20605;-62
2023/06/29 07:24:22;;;;;;;3.90;3.20;;;;;;;23.25;64.13;96514.25;5051962;28;20216;-62
2023/06/29 07:26:50;;;;;;;4.50;3.30;;;;;;;23.63;63.65;96514.84;5052042;28;20211;-63
2023/06/29 07:29:16;;;;;;;5.22;4.03;;;;;;;23.71;60.37;96498.34;5055029;28;20207;-62
2023/06/29 07:31:43;;;;;;;5.40;3.60;;;;;;;24.00;60.46;96493.16;5055383;28;20206;-62
2023/06/29 07:34:09;;;;;;;9.23;4.00;;;;;;;24.30;57.77;96503.97;5055015;28;20210;-61
2023/06/29 07:36:37;;;;;;;6.05;3.78;;;;;;;24.39;56.97;96505.25;5054715;28;20624;-62
2023/06/29 07:39:04;;;;;;;4.05;3.67;;;;;;;24.62;58.77;96503.38;5054936;28;20208;-64
2023/06/29 07:41:32;;;;;;;5.18;3.20;;;;;;;24.81;56.67;96492.47;5054670;28;20245;-63
2023/06/29 07:43:59;;;;;;;5.13;3.47;;;;;;;25.02;57.18;96513.53;5054017;28;20289;-62
2023/06/29 07:46:26;;;;;;;5.07;3.45;;;;;;;25.10;58.03;96503.19;5053311;28;20202;-62
2023/06/29 07:48:53;;;;;;;3.85;3.42;;;;;;;25.38;56.98;96504.28;5049304;28;20211;-63
2023/06/29 07:51:21;;;;;;;6.95;3.60;;;;;;;25.49;55.61;96501.56;5039764;28;20294;-62
2023/06/29 07:53:48;;;;;;;5.57;3.50;;;;;;;25.36;52.79;96501.84;5060208;28;20226;-61
2023/06/29 07:56:15;;;;;;;7.13;3.90;;;;;;;25.48;54.17;96502.63;5064349;28;20218;-63
2023/06/29 07:58:42;;;;;;;4.95;3.70;;;;;;;25.62;54.23;96495.06;5064310;28;20726;-62
2023/06/29 08:01:09;;;;;;;4.28;3.47;;;;;;;25.61;54.57;96494.25;5074029;28;20215;-63
2023/06/29 08:03:37;;;;;;;4.68;3.45;;;;;;;25.79;53.54;96495.16;5047654;28;20243;-61
2023/06/29 08:06:04;;;;;;;7.28;3.60;;;;;;;26.05;55.19;96495.34;5037833;28;20223;-63
2023/06/29 08:08:31;;;;;;;5.13;3.80;;;;;;;26.06;50.98;96496.19;5048225;28;20631;-62
2023/06/29 08:10:59;;;;;;;3.90;3.17;;;;;;;26.31;50.90;96488.53;5045282;28;20273;-62
2023/06/29 08:13:25;;;;;;;4.70;3.65;;;;;;;26.41;52.32;96488.69;5046595;28;20204;-62
2023/06/29 08:15:53;;;;;;;6.13;3.60;;;;;;;26.64;50.61;96487.72;5054770;28;20217;-62
2023/06/29 08:18:19;;;;;;;7.90;3.40;;;;;;;26.73;49.90;96497.06;5063920;28;20214;-60
2023/06/29 08:20:46;;;;;;;4.97;3.80;;;;;;;26.48;48.69;96497.50;5044808;28;20214;-62
2023/06/29 08:23:14;;;;;;;4.10;3.60;;;;;;;26.28;50.08;96493.63;5068811;28;20238;-62
2023/06/29 08:25:40;;;;;;;4.53;3.45;;;;;;;26.33;51.21;96491.81;5072714;28;20215;-62
2023/06/29 08:28:07;;;;;;;4.07;3.67;;;;;;;26.36;50.64;96480.47;5073197;28;20222;-62
2023/06/29 08:30:33;;;;;;;6.03;3.83;;;;;;;26.10;50.18;96478.38;5058288;28;20646;-61
2023/06/29 08:33:02;;;;;;;5.57;3.55;;;;;;;26.21;52.34;96478.34;5060508;28;20642;-61
2023/06/29 08:35:28;;;;;;;6.40;3.78;;;;;;;26.37;51.72;96482.13;5066226;28;20593;-61
2023/06/29 08:37:55;;;;;;;5.20;3.83;;;;;;;26.44;51.03;96474.63;5061519;28;20199;-61
2023/06/29 08:40:23;;;;;;;6.35;4.35;;;;;;;26.50;50.15;96479.06;5062882;28;20654;-62
2023/06/29 08:42:50;;;;;;;5.03;3.60;;;;;;;26.20;47.39;96473.16;5077741;28;20217;-62
2023/06/29 08:45:17;;;;;;;3.78;3.47;;;;;;;26.57;49.04;96470.78;5080226;28;20195;-60
2023/06/29 08:47:45;;;;;;;4.25;3.63;;;;;;;26.69;48.78;96472.31;5068531;28;20302;-61
2023/06/29 08:50:15;;;;;;;3.72;3.30;;;;;;;26.98;50.17;96472.22;5042365;28;20214;-61
2023/06/29 08:52:44;;;;;;;6.13;3.60;;;;;;;27.13;50.06;96472.44;5058096;28;20218;-62
2023/06/29 08:55:11;;;;;;;6.93;3.60;;;;;;;27.46;48.27;96476.94;5054189;28;20206;-61
2023/06/29 08:57:39;;;;;;;5.05;3.30;;;;;;;27.77;47.65;96478.13;5076915;28;20661;-61
2023/06/29 09:00:07;;;;;;;4.38;3.20;;;;;;;27.94;47.84;96471.53;5066862;28;20225;-61
2023/06/29 09:02:33;;;;;;;4.60;3.80;;;;;;;27.89;46.77;96476.06;5072114;28;20214;-62
2023/06/29 09:05:00;;;;;;;3.50;3.20;;;;;;;27.90;45.10;96475.00;5078383;28;20230;-61
2023/06/29 09:07:28;;;;;;;3.35;3.05;;;;;;;27.78;46.33;96471.59;5061668;28;20217;-63
2023/06/29 09:09:56;;;;;;;3.83;3.20;;;;;;;27.79;45.32;96471.34;5047555;28;20207;-62
2023/06/29 09:12:22;;;;;;;5.30;3.20;;;;;;;27.80;47.38;96464.03;5041930;28;20235;-61
2023/06/29 09:14:49;;;;;;;3.97;3.10;;;;;;;27.75;46.20;96455.81;5047097;28;20295;-61
2023/06/29 09:17:18;;;;;;;4.43;3.55;;;;;;;27.84;44.36;96459.72;5044524;28;20204;-62
2023/06/29 09:19:56;;;;;;;6.10;3.55;;;;;;;27.98;43.75;96455.53;5048715;28;20208;-61
2023/06/29 09:22:24;;;;;;;3.95;3.20;;;;;;;28.10;43.53;96453.47;5051419;28;20326;-62
2023/06/29 09:24:56;;;;;;;3.80;3.45;;;;;;;28.22;41.74;96445.97;5059868;28;20214;-62
2023/06/29 09:27:22;;;;;;;4.97;3.25;;;;;;;28.26;43.76;96452.56;5072899;28;20199;-63
2023/06/29 09:29:53;;;;;;;4.63;3.10;;;;;;;28.31;42.75;96455.28;5069874;28;20206;-62
2023/06/29 09:32:20;;;;;;;3.70;3.03;;;;;;;28.20;42.26;96448.13;5064451;28;20214;-62
2023/06/29 09:34:47;;;;;;;3.05;2.75;;;;;;;27.98;40.96;96450.91;5064640;28;20639;-61
2023/06/29 09:37:15;;;;;;;3.13;2.85;;;;;;;28.01;45.13;96449.56;5055944;28;20218;-62
2023/06/29 09:39:52;;;;;;;2.80;2.58;;;;;;;28.17;41.49;96448.66;5070914;28;20202;-62
2023/06/29 09:42:19;;;;;;;2.90;2.70;;;;;;;28.05;41.17;96440.66;5046332;28;20209;-62
2023/06/29 09:44:47;;;;;;;3.33;3.00;;;;;;;28.25;42.32;96439.19;5072259;28;20242;-63
2023/06/29 09:47:14;;;;;;;4.18;2.80;;;;;;;28.48;41.50;96447.03;5068845;28;20234;-62
2023/06/29 09:49:47;;;;;;;2.70;2.50;;;;;;;28.70;41.48;96442.28;5067459;28;20549;-62
2023/06/29 09:52:14;;;;;;;2.95;2.70;;;;;;;28.77;40.73;96440.16;5057532;28;20293;-61
2023/06/29 09:54:41;;;;;;;7.55;3.15;;;;;;;28.88;41.21;96438.31;5054834;28;20202;-62
2023/06/29 09:57:10;;;;;;;3.20;2.90;;;;;;;28.94;39.49;96437.28;5056981;28;20261;-62
2023/06/29 09:59:38;;;;;;;3.90;3.00;;;;;;;29.07;41.25;96439.53;5066760;28;20211;-62
2023/06/29 10:02:06;;;;;;;5.43;2.90;;;;;;;28.91;40.88;96437.81;5067488;28;20544;-61
2023/06/29 10:04:33;;;;;;;4.82;2.78;;;;;;;28.93;41.08;96435.63;5050564;28;20237;-62
2023/06/29 10:07:05;;;;;;;3.20;2.67;;;;;;;28.99;41.53;96434.56;5066941;28;20210;-61
2023/06/29 10:09:35;;;;;;;3.22;2.80;;;;;;;29.12;42.57;96431.41;5075708;28;20707;-61
2023/06/29 10:12:01;;;;;;;5.55;3.17;;;;;;;29.21;43.09;96431.69;5059466;28;20204;-62
2023/06/29 10:14:29;;;;;;;3.97;2.80;;;;;;;29.33;42.01;96429.59;5069259;28;20207;-62
2023/06/29 10:16:56;;;;;;;3.40;3.10;;;;;;;29.28;41.88;96430.41;5044464;28;20208;-62
2023/06/29 10:19:24;;;;;;;5.63;3.35;;;;;;;29.29;41.64;96429.31;5050697;28;20211;-62
2023/06/29 10:21:54;;;;;;;4.07;3.10;;;;;;;29.27;42.11;96425.19;5063330;28;20199;-61
2023/06/29 10:24:23;;;;;;;3.88;3.38;;;;;;;29.41;40.71;96429.91;5077009;28;20214;-61
2023/06/29 10:26:49;;;;;;;3.45;3.13;;;;;;;29.39;41.32;96421.19;5060962;28;20543;-62
2023/06/29 10:29:16;;;;;;;3.38;3.03;;;;;;;29.50;40.80;96422.03;5043719;28;20289;-63
2023/06/29 10:31:47;;;;;;;4.32;3.20;;;;;;;29.46;42.06;96413.56;5046973;28;20634;-61
2023/06/29 10:34:14;;;;;;;4.68;3.40;;;;;;;29.61;41.92;96427.25;5052301;28;20535;-61
2023/06/29 10:36:45;;;;;;;3.40;3.10;;;;;;;29.68;41.57;96420.72;5063093;28;20203;-61
2023/06/29 10:39:40;;;;;;;6.88;3.40;;;;;;;29.64;39.17;96420.44;5037173;28;20281;-61
2023/06/29 10:42:11;;;;;;;4.38;3.25;;;;;;;29.56;38.56;96413.59;5068875;28;20235;-61
2023/06/29 10:44:38;;;;;;;7.32;3.72;;;;;;;29.52;38.95;96406.22;5056291;28;20344;-61
2023/06/29 10:47:06;;;;;;;4.13;3.72;;;;;;;29.50;41.15;96403.78;5050094;28;20206;-61
2023/06/29 10:49:33;;;;;;;6.20;3.85;;;;;;;29.54;40.18;96404.88;5077340;28;20229;-62
2023/06/29 10:52:03;;;;;;;4.28;3.88;;;;;;;29.62;39.46;96406.25;5068254;28;20206;-62
2023/06/29 10:54:29;;;;;;;6.93;3.72;;;;;;;29.62;39.37;96406.25;5056941;28;20266;-61
2023/06/29 10:56:57;;;;;;;4.50;4.10;;;;;;;29.62;39.18;96409.78;5075701;28;20638;-62
2023/06/29 10:59:24;;;;;;;5.10;4.60;;;;;;;29.63;38.95;96392.34;5073967;28;20272;-63
2023/06/29 11:01:51;;;;;;;5.95;4.47;;;;;;;29.77;40.35;96400.84;5049610;28;20211;-61
2023/06/29 11:04:20;;;;;;;5.10;4.20;;;;;;;29.87;39.71;96397.31;5054079;28;20227;-61
2023/06/29 11:06:46;;;;;;;4.75;4.35;;;;;;;30.01;40.06;96393.81;5046052;28;20214;-61
2023/06/29 11:09:13;;;;;;;5.05;4.60;;;;;;;30.03;37.65;96385.34;5055748;28;20211;-61
2023/06/29 11:11:40;;;;;;;5.30;4.80;;;;;;;30.04;37.44;96387.00;5054421;28;20543;-61
2023/06/29 11:14:07;;;;;;;5.38;4.88;;;;;;;29.98;36.47;96390.78;5057178;28;20266;-61
2023/06/29 11:16:33;;;;;;;4.43;4.03;;;;;;;29.99;38.57;96379.63;5047523;28;20211;-61
2023/06/29 11:19:02;;;;;;;5.80;5.03;;;;;;;29.92;38.66;96386.44;5056118;28;20218;-61
2023/06/29 11:21:30;;;;;;;5.65;4.60;;;;;;;29.46;39.49;96378.16;5055877;28;20207;-60
2023/06/29 11:23:56;;;;;;;6.20;4.90;;;;;;;29.56;41.44;96374.63;5055663;28;20679;-61
2023/06/29 11:26:24;;;;;;;5.57;5.03;;;;;;;29.79;42.99;96376.03;5056179;28;20551;-60
2023/06/29 11:28:51;;;;;;;8.20;6.50;;;;;;;29.78;40.20;96372.50;5054864;28;20646;-60
2023/06/29 11:31:17;;;;;;;6.32;5.32;;;;;;;29.74;40.00;96362.38;5055571;28;20218;-61
2023/06/29 11:33:50;;;;;;;5.65;5.15;;;;;;;29.96;40.23;96365.72;5050142;28;20207;-62
2023/06/29 11:36:27;;;;;;;6.00;5.40;;;;;;;30.06;39.62;96369.28;5046089;28;20211;-61